Fourchu: Past 24 Hour Conditions

 

Twillingate

07:30 AM NDT 21 October 2014
This table is a summary of hourly weather conditions for the past 24 hours.
Date / Time
(NDT)
Wind(knots) Conditions Visibility(km) Pressure(kPa) Air tempC) Relative humidity(%) Dew pointC)
21 October 2014
7:30 W 30 gust 39 N/A N/A 100.6 7 75 3
6:30 WSW 30 gust 38 N/A N/A 100.4 7 77 3
5:30 WSW 30 gust 39 N/A N/A 100.3 7 75 3
4:30 WSW 28 gust 41 N/A N/A 100.1 7 74 3
3:30 WSW 26 gust 38 N/A N/A 100.0 7 73 2
2:30 SW 26 gust 35 N/A N/A 99.9 6 74 2
1:30 SW 27 gust 40 N/A N/A 99.8 6 75 2
0:30 SW 26 gust 41 N/A N/A 99.7 6 73 2
20 October 2014
23:30 SW 24 gust 37 N/A N/A 99.7 7 70 1
22:30 SW 26 gust 37 N/A N/A 99.7 7 72 2
21:30 SW 28 gust 38 N/A N/A 99.6 7 72 2
20:30 SW 33 gust 44 N/A N/A 99.5 7 70 2
19:30 SW 30 gust 41 N/A N/A 99.4 8 70 3
18:30 SW 31 gust 41 N/A N/A 99.4 9 69 3
17:30 SW 31 gust 40 N/A N/A 99.3 9 68 4
16:30 SW 31 gust 42 N/A N/A 99.2 11 71 6
15:30 SW 27 gust 38 N/A N/A 99.0 12 77 8
14:30 SSW 23 gust 34 N/A N/A 98.9 14 76 10
13:30 SSW 22 gust 35 N/A N/A 98.8 16 77 12
12:30 SSE 17 gust 32 N/A N/A 98.8 17 93 16
11:30 ESE 18 gust 28 N/A N/A 99.0 16 95 15
10:30 SE 11 gust 23 N/A N/A 99.4 16 96 15
9:30 ESE 15 N/A N/A 99.5 15 96 14
8:30 SE 18 gust 24 N/A N/A 99.7 14 96 13
7:30 ESE 15 gust 23 N/A N/A 99.8 13 96 12
 
Map of Atlantic - Newfoundland marine weather areas Southwestern Grand Banks - 44138 Banquereau - 44139 Tail of the Bank - 44140 Nickerson Bank - 44251 Northeast Burgeo Bank - 44255 Blanc-Sablon Airport Cap Whittle Chevery Natashquan Airport Heath Point Miscou Island Grand Étang Ingonish Beach North Mountain St.Paul Island J.A. Douglas McCurdy Sydney Airport Charlottetown Airport East Point North Cape Argentia Bonavista Burgeo Cape Race Corner Brook Daniel's Harbour Englee Ferolle Point La Scie Port aux Basques Rocky Harbour Sagona Island St. Anthony Airport St. John's Int'l Airport St. Lawrence Stephenville Airport Twillingate Winterland Wreckhouse Cartwright Airport Mary's Harbour Grates Cove Pool's Island Marticot Island Long Pond Îles de la Madeleine Airport
Legend: buoyBuoy land stationLand Station